Time;durP1;ratioP1;P1;durP2;ratioP2;P2;SDS_P1;SDS_P2;PMS_P1;PMS_P2;Temp;Humidity;BMP_temperature;BMP_pressure;BME280_temperature;BME280_humidity;BME280_pressure;Samples;Min_cycle;Max_cycle;Signal;HPM_P1;HPM_P2
2021/06/24 00:01:07;;;;;;;21.05;12.75;;;;;;;21.51;70.48;100380.03;5109046;28;20261;-77
2021/06/24 00:03:35;;;;;;;22.20;11.95;;;;;;;21.38;70.36;100361.19;5129347;28;20024;-77
2021/06/24 00:06:02;;;;;;;30.10;13.57;;;;;;;21.43;70.66;100374.19;5113808;28;20079;-78
2021/06/24 00:08:28;;;;;;;21.20;13.25;;;;;;;21.41;70.61;100382.19;5095470;28;20036;-76
2021/06/24 00:10:56;;;;;;;18.67;12.00;;;;;;;21.43;70.91;100392.72;5097908;28;20048;-77
2021/06/24 00:13:23;;;;;;;19.40;12.75;;;;;;;21.41;70.87;100391.94;5094932;28;20476;-76
2021/06/24 00:15:50;;;;;;;22.67;11.82;;;;;;;21.39;70.85;100388.50;5110739;28;20062;-76
2021/06/24 00:18:16;;;;;;;21.13;12.30;;;;;;;21.34;70.86;100381.63;5104469;28;20587;-79
2021/06/24 00:20:43;;;;;;;19.85;12.40;;;;;;;21.34;71.22;100386.06;5076940;28;20337;-75
2021/06/24 00:23:10;;;;;;;19.30;11.57;;;;;;;21.28;71.35;100379.25;5110004;28;20035;-76
2021/06/24 00:25:35;;;;;;;25.00;13.38;;;;;;;21.08;71.33;100358.97;5110751;28;20051;-74
2021/06/24 00:28:03;;;;;;;25.42;13.07;;;;;;;21.22;71.17;100388.31;5110439;28;20032;-77
2021/06/24 00:30:29;;;;;;;22.25;11.85;;;;;;;21.23;71.51;100389.19;5107721;28;20035;-76
2021/06/24 00:32:54;;;;;;;16.23;11.77;;;;;;;21.20;71.68;100391.97;5119980;28;20043;-76
2021/06/24 00:35:21;;;;;;;23.02;12.50;;;;;;;21.21;71.90;100398.97;5108479;28;20043;-76
2021/06/24 00:37:47;;;;;;;21.90;12.55;;;;;;;21.14;71.92;100392.22;5109305;28;20044;-76
2021/06/24 00:40:14;;;;;;;21.52;11.90;;;;;;;21.17;71.75;100406.19;5100226;28;20105;-76
2021/06/24 00:42:42;;;;;;;27.23;13.23;;;;;;;21.06;71.94;100390.78;5094408;28;20051;-77
2021/06/24 00:45:12;;;;;;;21.23;13.20;;;;;;;21.02;72.07;100397.13;5093684;28;20043;-77
2021/06/24 00:47:40;;;;;;;18.73;12.80;;;;;;;21.00;72.23;100384.88;5110111;28;20044;-77
2021/06/24 00:50:08;;;;;;;27.42;12.70;;;;;;;21.06;72.31;100406.66;5092744;28;20114;-79
2021/06/24 00:52:34;;;;;;;22.42;12.40;;;;;;;20.94;72.56;100387.81;5076352;28;20518;-77
2021/06/24 00:55:00;;;;;;;25.02;13.82;;;;;;;20.99;72.38;100404.31;5093978;28;20123;-77
2021/06/24 00:57:44;;;;;;;23.13;13.98;;;;;;;20.93;72.55;100402.81;5091789;28;20093;-78
2021/06/24 01:00:11;;;;;;;26.17;13.82;;;;;;;20.92;72.75;100406.38;5093342;28;20040;-77
2021/06/24 01:02:39;;;;;;;24.75;12.85;;;;;;;20.87;73.24;100408.34;5092082;28;20036;-77
2021/06/24 01:05:05;;;;;;;26.95;13.02;;;;;;;20.87;73.13;100409.22;5092146;28;20074;-76
2021/06/24 01:07:32;;;;;;;17.88;10.77;;;;;;;20.86;73.28;100406.63;5091925;28;20038;-76
2021/06/24 01:10:18;;;;;;;28.95;13.90;;;;;;;20.84;73.36;100411.16;5107084;28;20067;-77
2021/06/24 01:12:45;;;;;;;20.90;13.02;;;;;;;20.92;73.55;100424.88;5093462;28;20039;-77
2021/06/24 01:15:11;;;;;;;27.13;13.40;;;;;;;20.92;73.78;100425.75;5110495;28;20036;-77
2021/06/24 01:17:37;;;;;;;22.60;12.93;;;;;;;20.82;73.74;100399.78;5094462;28;20055;-76
2021/06/24 01:20:04;;;;;;;27.83;13.82;;;;;;;20.93;73.47;100426.63;5093137;28;20043;-75
2021/06/24 01:22:33;;;;;;;23.85;12.90;;;;;;;20.92;73.35;100428.41;5093146;28;20123;-77
2021/06/24 01:24:59;;;;;;;30.55;14.70;;;;;;;20.97;73.68;100432.63;5092648;28;20036;-77
2021/06/24 01:27:25;;;;;;;24.65;15.68;;;;;;;20.97;73.68;100430.84;5058019;28;20044;-76
2021/06/24 01:29:51;;;;;;;25.70;13.70;;;;;;;20.98;73.67;100422.00;5092756;28;20064;-76
2021/06/24 01:32:19;;;;;;;24.27;12.30;;;;;;;21.02;73.65;100430.66;5093406;28;20046;-75
2021/06/24 01:34:45;;;;;;;27.90;12.60;;;;;;;20.97;73.58;100420.28;5075399;28;20043;-77
2021/06/24 01:37:11;;;;;;;26.17;12.55;;;;;;;21.06;73.46;100433.13;5075023;28;20044;-75
2021/06/24 01:39:37;;;;;;;22.38;12.52;;;;;;;21.05;73.06;100423.47;5091619;28;20070;-76
2021/06/24 01:42:56;;;;;;;26.65;12.95;;;;;;;20.95;73.43;100394.81;5091081;28;20426;-77
2021/06/24 01:45:22;;;;;;;21.02;11.65;;;;;;;21.02;73.10;100407.72;5091742;28;20096;-77
2021/06/24 01:47:49;;;;;;;34.63;13.23;;;;;;;21.09;73.05;100407.44;5093209;28;20047;-75
2021/06/24 01:50:17;;;;;;;32.03;13.85;;;;;;;21.19;73.21;100422.00;5091298;28;20120;-76
2021/06/24 01:52:45;;;;;;;23.65;14.45;;;;;;;21.21;73.19;100423.63;5090890;28;20055;-76
2021/06/24 01:55:13;;;;;;;23.27;13.10;;;;;;;21.25;73.24;100428.81;5094627;28;20044;-76
2021/06/24 01:57:51;;;;;;;23.92;13.50;;;;;;;21.18;73.07;100417.63;5094560;28;20078;-76
2021/06/24 02:00:41;;;;;;;26.15;14.18;;;;;;;21.26;73.33;100426.09;5096429;28;20075;-75
2021/06/24 02:03:15;;;;;;;21.45;13.05;;;;;;;21.30;73.44;100426.81;5095595;28;20048;-75
2021/06/24 02:05:43;;;;;;;24.38;14.05;;;;;;;21.34;73.51;100431.91;5112941;28;20040;-76
2021/06/24 02:08:18;;;;;;;23.33;13.30;;;;;;;21.39;73.28;100436.13;5112432;28;20119;-77
2021/06/24 02:11:05;;;;;;;24.27;13.45;;;;;;;21.44;73.31;100427.06;5098135;28;20050;-76
2021/06/24 02:13:33;;;;;;;26.38;14.75;;;;;;;21.48;73.22;100422.50;5096629;28;20571;-76
2021/06/24 02:16:03;;;;;;;32.15;14.75;;;;;;;21.53;73.18;100425.78;5113183;28;20052;-77
2021/06/24 02:18:31;;;;;;;22.23;14.23;;;;;;;21.58;73.04;100420.31;5096172;28;20399;-75
2021/06/24 02:21:00;;;;;;;32.25;15.07;;;;;;;21.67;73.16;100433.16;5096366;28;20044;-75
2021/06/24 02:23:43;;;;;;;31.08;14.55;;;;;;;21.71;73.37;100412.69;5081676;28;20564;-77
2021/06/24 02:26:19;;;;;;;33.72;15.48;;;;;;;21.80;72.62;100422.84;5094450;28;20535;-75
2021/06/24 02:28:52;;;;;;;27.05;15.63;;;;;;;21.85;73.34;100410.28;5094170;28;20094;-77
2021/06/24 02:31:27;;;;;;;27.55;14.77;;;;;;;21.96;73.09;100415.91;5096178;28;20046;-75
2021/06/24 02:33:55;;;;;;;30.70;14.80;;;;;;;21.94;72.99;100398.38;5094707;28;20135;-76
2021/06/24 02:36:33;;;;;;;30.13;15.45;;;;;;;22.18;73.15;100422.00;5094563;28;20044;-76
2021/06/24 02:39:01;;;;;;;32.08;17.20;;;;;;;22.23;72.76;100406.75;5077677;28;20142;-76
2021/06/24 02:41:33;;;;;;;31.08;15.88;;;;;;;22.42;72.66;100417.28;5094301;28;20043;-75
2021/06/24 02:44:00;;;;;;;28.92;16.25;;;;;;;22.58;72.05;100422.75;5094253;28;20043;-76
2021/06/24 02:46:26;;;;;;;31.90;15.50;;;;;;;22.60;71.93;100407.63;5094349;28;20081;-76
2021/06/24 02:48:54;;;;;;;39.45;17.15;;;;;;;22.71;71.60;100410.63;5095024;28;20108;-77
2021/06/24 02:51:33;;;;;;;35.17;16.10;;;;;;;22.84;71.35;100405.53;5076865;28;20043;-76
2021/06/24 02:54:09;;;;;;;38.22;16.23;;;;;;;23.05;71.42;100415.13;5093626;28;20118;-79
2021/06/24 02:56:39;;;;;;;33.42;15.85;;;;;;;23.13;71.05;100408.47;5095275;28;20069;-77
2021/06/24 02:59:20;;;;;;;31.80;16.33;;;;;;;23.25;70.55;100409.69;5090352;28;20485;-77
2021/06/24 03:01:47;;;;;;;34.55;15.77;;;;;;;23.39;70.58;100408.94;5091602;28;20123;-79
2021/06/24 03:04:24;;;;;;;31.02;15.73;;;;;;;23.49;70.11;100408.47;5057980;28;20581;-76
2021/06/24 03:06:52;;;;;;;32.60;16.80;;;;;;;23.62;70.41;100410.38;5090273;28;20040;-76
2021/06/24 03:09:18;;;;;;;36.90;16.75;;;;;;;23.71;69.77;100403.72;5072769;28;20048;-74
2021/06/24 03:11:45;;;;;;;32.03;15.40;;;;;;;23.87;69.40;100414.34;5076650;28;20036;-75
2021/06/24 03:14:11;;;;;;;32.33;15.27;;;;;;;23.95;69.39;100400.63;5079541;28;20040;-76
2021/06/24 03:16:41;;;;;;;31.42;16.75;;;;;;;24.10;69.23;100404.28;5094290;28;20529;-76
2021/06/24 03:19:12;;;;;;;33.43;15.97;;;;;;;24.26;68.91;100406.09;5094741;28;20043;-75
2021/06/24 03:21:47;;;;;;;28.70;15.57;;;;;;;24.40;68.69;100407.94;5062494;28;20283;-75
2021/06/24 03:24:13;;;;;;;31.98;16.08;;;;;;;24.51;68.36;100402.88;5112285;28;20040;-75
2021/06/24 03:26:40;;;;;;;31.08;16.00;;;;;;;24.65;68.14;100405.56;5077364;28;20062;-75
2021/06/24 03:29:10;;;;;;;32.30;15.13;;;;;;;24.85;67.92;100408.88;5093970;28;20042;-75
2021/06/24 03:31:43;;;;;;;31.10;14.68;;;;;;;25.03;67.51;100409.59;5095698;28;20050;-76
2021/06/24 03:34:09;;;;;;;26.25;14.95;;;;;;;25.16;67.36;100412.38;5079859;28;20036;-77
2021/06/24 03:36:35;;;;;;;27.35;15.13;;;;;;;25.30;66.93;100405.34;5096901;28;20048;-76
2021/06/24 03:39:03;;;;;;;28.00;15.10;;;;;;;25.46;66.34;100406.19;5097052;28;20063;-77
2021/06/24 03:41:35;;;;;;;32.15;15.25;;;;;;;25.59;66.21;100402.75;5096693;28;20051;-78
2021/06/24 03:44:02;;;;;;;29.90;14.00;;;;;;;25.75;65.57;100399.97;5096625;28;20036;-77
2021/06/24 03:46:28;;;;;;;24.48;13.50;;;;;;;25.85;65.35;100380.63;5096233;28;20069;-77
2021/06/24 03:48:55;;;;;;;31.50;14.43;;;;;;;26.09;64.78;100390.66;5096106;28;20047;-76
2021/06/24 03:51:23;;;;;;;25.02;14.07;;;;;;;26.20;63.86;100376.66;5062510;28;20092;-77
2021/06/24 03:53:56;;;;;;;29.80;14.23;;;;;;;26.46;63.59;100388.28;5099265;28;20044;-76
2021/06/24 03:56:22;;;;;;;36.58;14.70;;;;;;;26.64;63.11;100384.50;5119994;28;20046;-77
2021/06/24 03:58:52;;;;;;;24.33;14.23;;;;;;;26.82;62.85;100391.28;5117202;28;20044;-78
2021/06/24 04:01:18;;;;;;;23.95;13.18;;;;;;;26.98;62.05;100379.53;5081450;28;20050;-76
2021/06/24 04:03:44;;;;;;;31.17;14.65;;;;;;;27.13;61.76;100389.19;5115011;28;20036;-76
2021/06/24 04:06:13;;;;;;;28.05;14.25;;;;;;;27.19;61.20;100374.53;5099248;28;20496;-76
2021/06/24 04:08:39;;;;;;;31.13;13.52;;;;;;;27.45;61.04;100380.72;5101257;28;20040;-76
2021/06/24 04:11:22;;;;;;;25.23;14.68;;;;;;;27.69;60.80;100389.81;5104121;28;20107;-76
2021/06/24 04:13:55;;;;;;;30.30;14.98;;;;;;;27.88;60.33;100383.97;5130868;28;20028;-77
2021/06/24 04:16:44;;;;;;;29.58;16.00;;;;;;;27.98;59.58;100374.31;5110745;28;20035;-77
2021/06/24 04:19:11;;;;;;;27.65;15.45;;;;;;;28.24;59.08;100387.63;5097232;28;20040;-77
2021/06/24 04:21:38;;;;;;;32.22;16.58;;;;;;;28.36;58.71;100380.47;5115136;28;20048;-77
2021/06/24 04:24:04;;;;;;;31.23;15.60;;;;;;;28.55;58.21;100385.31;5115792;28;20100;-75
2021/06/24 04:26:31;;;;;;;29.85;16.77;;;;;;;28.71;57.67;100376.97;5115194;28;20032;-77
2021/06/24 04:28:57;;;;;;;34.15;16.38;;;;;;;28.94;57.29;100377.06;5116320;28;20050;-77
2021/06/24 04:31:23;;;;;;;26.80;16.33;;;;;;;29.08;57.07;100366.13;5114079;28;20047;-76
2021/06/24 04:33:49;;;;;;;26.40;15.65;;;;;;;29.29;56.59;100376.13;5097246;28;20012;-76
2021/06/24 04:36:24;;;;;;;28.98;15.32;;;;;;;29.42;56.47;100360.81;5110976;28;20044;-75
2021/06/24 04:39:00;;;;;;;24.70;15.57;;;;;;;29.70;55.85;100360.41;5094653;28;20051;-78
2021/06/24 04:41:26;;;;;;;31.50;16.27;;;;;;;29.90;55.63;100356.97;5112666;28;20058;-77
2021/06/24 04:43:58;;;;;;;32.72;16.67;;;;;;;30.03;54.79;100364.88;5113535;28;20022;-77
2021/06/24 04:46:26;;;;;;;28.58;14.63;;;;;;;30.21;54.91;100350.94;5096818;28;20024;-77
2021/06/24 04:48:52;;;;;;;28.88;16.77;;;;;;;30.41;53.99;100361.81;5113713;28;20040;-77
2021/06/24 04:51:44;;;;;;;28.50;15.68;;;;;;;30.53;53.41;100349.19;5095606;28;20046;-77
2021/06/24 04:54:13;;;;;;;31.60;16.58;;;;;;;30.83;52.80;100366.41;5120131;28;20100;-76
2021/06/24 04:56:41;;;;;;;31.40;16.10;;;;;;;30.99;52.15;100356.03;5075925;28;20082;-77
2021/06/24 04:59:09;;;;;;;27.40;16.45;;;;;;;31.13;51.94;100354.81;5090275;28;20048;-77
2021/06/24 05:01:38;;;;;;;28.23;15.95;;;;;;;31.42;50.95;100367.59;5088684;28;20524;-76
2021/06/24 05:04:07;;;;;;;35.53;15.18;;;;;;;31.61;50.03;100365.94;5071839;28;20062;-75
2021/06/24 05:06:34;;;;;;;27.55;16.38;;;;;;;31.79;49.53;100366.16;5072485;28;20491;-76
2021/06/24 05:09:00;;;;;;;29.00;16.13;;;;;;;31.99;49.26;100364.34;5089979;28;20055;-77
2021/06/24 05:11:27;;;;;;;31.13;17.35;;;;;;;32.14;48.42;100360.25;5073243;28;20074;-77
2021/06/24 05:13:52;;;;;;;32.78;16.50;;;;;;;32.31;48.14;100360.59;5074166;28;20047;-77
2021/06/24 05:16:18;;;;;;;31.35;15.77;;;;;;;32.48;48.18;100363.56;5092310;28;20138;-76
2021/06/24 05:18:44;;;;;;;30.77;16.48;;;;;;;32.62;47.29;100368.50;5092130;28;20050;-78
2021/06/24 05:21:10;;;;;;;30.92;15.85;;;;;;;32.71;46.69;100358.69;5091951;28;20040;-78
2021/06/24 05:23:38;;;;;;;24.70;14.18;;;;;;;32.94;46.63;100366.47;5093430;28;20044;-76
2021/06/24 05:26:04;;;;;;;31.52;15.35;;;;;;;32.99;45.87;100356.94;5091794;28;20039;-76
2021/06/24 05:28:31;;;;;;;27.23;16.13;;;;;;;33.15;45.60;100358.19;5091117;28;20089;-76
2021/06/24 05:30:57;;;;;;;35.38;17.20;;;;;;;33.29;45.06;100368.50;5074283;28;20047;-76
2021/06/24 05:33:23;;;;;;;33.22;16.42;;;;;;;33.44;44.85;100362.63;5092793;28;20036;-75
2021/06/24 05:35:49;;;;;;;31.73;16.42;;;;;;;33.41;43.82;100362.94;5090841;28;20495;-75
2021/06/24 05:38:16;;;;;;;30.80;16.23;;;;;;;33.35;44.03;100351.72;5090613;28;20051;-75
2021/06/24 05:40:44;;;;;;;24.98;16.00;;;;;;;33.40;43.62;100345.06;5092199;28;20047;-76
2021/06/24 05:43:10;;;;;;;28.60;16.05;;;;;;;33.58;42.49;100361.28;5092055;28;20040;-76
2021/06/24 05:45:38;;;;;;;27.50;15.38;;;;;;;33.59;42.53;100354.88;5091953;28;20040;-76
2021/06/24 05:48:04;;;;;;;24.63;14.52;;;;;;;33.81;42.22;100342.84;5107504;28;20032;-75
2021/06/24 05:50:30;;;;;;;29.30;15.15;;;;;;;34.08;41.01;100341.97;5092494;28;20068;-76
2021/06/24 05:52:56;;;;;;;27.35;13.90;;;;;;;34.53;40.78;100334.78;5092955;28;20134;-76
2021/06/24 05:58:12;;;;;;;30.63;13.98;;;;;;;37.15;37.82;100330.34;5108271;28;20124;-77
2021/06/24 06:00:39;;;;;;;28.40;14.70;;;;;;;38.89;34.81;100326.44;5091822;28;20032;-78
2021/06/24 06:03:05;;;;;;;31.73;13.60;;;;;;;40.25;32.77;100327.00;5091374;28;20040;-76
2021/06/24 06:05:33;;;;;;;22.20;12.93;;;;;;;41.72;30.10;100337.09;5086137;28;20506;-78
2021/06/24 06:08:00;;;;;;;24.70;12.52;;;;;;;42.99;28.57;100320.72;5071539;28;20054;-77
2021/06/24 06:10:26;;;;;;;26.92;13.15;;;;;;;44.11;26.43;100340.59;5108048;28;20039;-75
2021/06/24 06:12:53;;;;;;;27.70;11.07;;;;;;;44.42;25.25;100341.56;5110917;28;20040;-76
2021/06/24 06:15:19;;;;;;;20.85;9.65;;;;;;;45.09;24.37;100340.09;5092816;28;20380;-76
2021/06/24 06:17:44;;;;;;;20.45;8.90;;;;;;;45.75;23.03;100342.19;5089535;28;20048;-75
2021/06/24 06:20:11;;;;;;;19.90;9.18;;;;;;;46.29;22.25;100339.44;5090402;28;20044;-74
2021/06/24 06:22:37;;;;;;;18.02;8.80;;;;;;;46.81;21.54;100344.25;5092841;28;20050;-77
2021/06/24 06:25:03;;;;;;;18.85;8.15;;;;;;;47.53;21.05;100333.03;5105321;28;20036;-77
2021/06/24 06:27:29;;;;;;;21.63;7.93;;;;;;;48.35;19.88;100350.19;5100837;28;20041;-77
2021/06/24 06:29:55;;;;;;;17.58;8.15;;;;;;;48.93;18.90;100338.88;5073325;28;20128;-78
2021/06/24 06:32:22;;;;;;;19.55;7.20;;;;;;;49.15;18.33;100339.72;5071383;28;20048;-75
2021/06/24 06:34:48;;;;;;;22.15;8.20;;;;;;;49.73;17.58;100336.47;5071295;28;20047;-76
2021/06/24 06:37:14;;;;;;;20.65;7.60;;;;;;;50.44;16.78;100340.09;5072767;28;20117;-82
2021/06/24 06:39:40;;;;;;;16.48;7.20;;;;;;;51.24;15.91;100335.50;5071460;28;20161;-75
2021/06/24 06:42:06;;;;;;;14.93;6.82;;;;;;;51.74;15.06;100338.66;5090776;28;20046;-75
2021/06/24 06:44:32;;;;;;;12.27;6.30;;;;;;;52.19;14.00;100335.31;5076999;28;20038;-75
2021/06/24 06:46:58;;;;;;;15.32;6.57;;;;;;;52.22;14.41;100331.97;5095027;28;20123;-76
2021/06/24 06:49:24;;;;;;;11.63;6.38;;;;;;;52.71;13.58;100341.59;5095227;28;20520;-76
2021/06/24 06:51:50;;;;;;;16.98;6.72;;;;;;;52.95;12.71;100343.75;5091268;28;20040;-76
2021/06/24 06:54:16;;;;;;;13.68;5.15;;;;;;;53.12;12.45;100338.66;5090318;28;20044;-76
2021/06/24 06:56:46;;;;;;;11.35;5.57;;;;;;;53.49;12.01;100330.09;5074394;28;20411;-79
2021/06/24 06:59:13;;;;;;;12.25;5.75;;;;;;;53.70;11.71;100322.44;5108684;28;20114;-75
2021/06/24 07:01:39;;;;;;;17.55;6.95;;;;;;;53.91;11.91;100331.41;5093861;28;20047;-76
2021/06/24 07:04:29;;;;;;;12.02;5.90;;;;;;;54.17;11.30;100336.75;5092426;28;20552;-76
2021/06/24 07:06:55;;;;;;;6.93;5.28;;;;;;;54.47;11.00;100321.69;5092350;28;20044;-76
2021/06/24 07:09:20;;;;;;;16.08;5.43;;;;;;;54.63;11.41;100332.66;5075770;28;20062;-77
2021/06/24 07:11:46;;;;;;;15.70;5.63;;;;;;;54.85;11.01;100322.91;5091779;28;20039;-76
2021/06/24 07:14:12;;;;;;;16.60;5.60;;;;;;;55.39;10.23;100324.41;5092215;28;20047;-75
2021/06/24 07:16:38;;;;;;;12.35;5.53;;;;;;;55.76;9.72;100332.16;5084701;28;20062;-74
2021/06/24 07:19:04;;;;;;;17.75;5.47;;;;;;;55.81;10.27;100319.00;5075243;28;20081;-74
2021/06/24 07:21:30;;;;;;;17.20;5.72;;;;;;;56.35;9.54;100326.13;5108749;28;20093;-74
2021/06/24 07:23:56;;;;;;;14.27;5.60;;;;;;;56.20;9.57;100322.44;5109008;28;20040;-75
2021/06/24 07:26:21;;;;;;;15.55;6.53;;;;;;;56.40;9.57;100329.63;5085169;28;20456;-75
2021/06/24 07:28:48;;;;;;;12.88;5.38;;;;;;;56.32;10.03;100315.56;5086519;28;20048;-74
2021/06/24 07:31:13;;;;;;;12.82;5.22;;;;;;;56.59;9.25;100319.50;5093325;28;20088;-74
2021/06/24 07:33:39;;;;;;;12.48;5.63;;;;;;;56.77;9.58;100309.31;5093218;28;20032;-77
2021/06/24 07:36:05;;;;;;;9.30;5.22;;;;;;;56.80;9.58;100311.50;5093538;28;20071;-76
2021/06/24 07:38:31;;;;;;;16.45;5.82;;;;;;;56.71;9.55;100311.41;5093036;28;20070;-75
2021/06/24 07:41:10;;;;;;;20.85;6.13;;;;;;;57.28;8.92;100324.13;5091946;28;20658;-76
2021/06/24 07:43:36;;;;;;;12.35;5.53;;;;;;;56.80;8.71;100309.53;5108826;28;20130;-75
2021/06/24 07:46:02;;;;;;;14.38;5.90;;;;;;;56.45;8.97;100306.34;5092124;28;20126;-77
2021/06/24 07:48:28;;;;;;;14.63;5.50;;;;;;;56.31;9.26;100302.75;5109249;28;20035;-77
2021/06/24 07:50:54;;;;;;;13.30;5.88;;;;;;;56.64;8.75;100297.03;5097386;28;20043;-76
2021/06/24 07:53:20;;;;;;;11.40;5.10;;;;;;;56.89;9.22;100297.63;5073187;28;20079;-76
2021/06/24 07:55:46;;;;;;;10.98;5.80;;;;;;;57.20;9.15;100294.16;5072979;28;20192;-76
2021/06/24 07:58:12;;;;;;;12.90;5.53;;;;;;;57.47;8.56;100291.22;5082481;28;20051;-76
2021/06/24 08:00:38;;;;;;;17.13;5.72;;;;;;;57.74;8.74;100297.78;5109522;27;20048;-77
2021/06/24 08:03:05;;;;;;;13.00;5.57;;;;;;;57.63;8.14;100284.41;5075133;28;20512;-75
2021/06/24 08:05:31;;;;;;;9.43;5.65;;;;;;;57.80;8.63;100292.09;5083540;28;20131;-77
2021/06/24 08:07:57;;;;;;;10.10;5.22;;;;;;;57.50;8.11;100286.16;5088210;28;20519;-76
2021/06/24 08:10:23;;;;;;;13.57;5.50;;;;;;;57.20;8.52;100288.56;5073933;28;20059;-76
2021/06/24 08:12:49;;;;;;;12.95;5.95;;;;;;;57.22;8.36;100277.91;5092449;28;20502;-76
2021/06/24 08:15:20;;;;;;;11.00;5.97;;;;;;;57.11;8.54;100289.28;5092644;28;20093;-76
2021/06/24 08:17:46;;;;;;;20.35;6.70;;;;;;;57.24;8.57;100272.81;5093252;28;20051;-77
2021/06/24 08:20:13;;;;;;;15.27;5.53;;;;;;;57.39;8.37;100274.38;5092391;28;20036;-77
2021/06/24 08:22:39;;;;;;;13.68;5.80;;;;;;;57.31;8.08;100264.78;5093927;28;20493;-76
2021/06/24 08:25:07;;;;;;;11.13;5.95;;;;;;;57.61;7.62;100276.34;5093438;28;20118;-76
2021/06/24 08:27:35;;;;;;;14.43;6.07;;;;;;;57.94;7.45;100284.41;5091157;28;20410;-74
2021/06/24 08:30:03;;;;;;;12.57;6.25;;;;;;;56.90;7.99;100274.16;5090288;28;20506;-76
2021/06/24 08:32:29;;;;;;;;;;;;;;;56.08;8.49;100274.72;5090535;28;20507;-76
2021/06/24 08:34:55;;;;;;;13.65;6.38;;;;;;;56.55;8.60;100269.88;5087979;28;19941;-77
2021/06/24 08:37:21;;;;;;;14.07;6.07;;;;;;;57.25;8.13;100269.69;5086969;28;20040;-75
2021/06/24 08:39:48;;;;;;;18.88;6.28;;;;;;;57.46;8.46;100277.53;5071450;28;20036;-76
2021/06/24 08:42:16;;;;;;;10.65;5.07;;;;;;;57.93;8.23;100273.56;5088427;28;20035;-75
2021/06/24 08:44:44;;;;;;;14.98;6.47;;;;;;;58.43;7.84;100283.66;5092585;28;20044;-76
2021/06/24 08:47:11;;;;;;;;;;;;;;;58.72;7.58;100285.00;5092371;28;20074;-75
2021/06/24 08:49:38;;;;;;;14.45;6.57;;;;;;;58.39;8.19;100293.81;5095101;28;19920;-74
2021/06/24 08:52:05;;;;;;;11.88;5.95;;;;;;;57.56;8.23;100284.88;5071647;28;20389;-75
2021/06/24 08:54:31;;;;;;;14.95;6.40;;;;;;;55.81;8.91;100265.16;5074667;28;20124;-78
2021/06/24 08:56:57;;;;;;;16.13;6.20;;;;;;;54.88;8.87;100274.97;5075059;28;20201;-76
2021/06/24 08:59:23;;;;;;;10.85;5.47;;;;;;;55.25;8.91;100267.75;5087944;28;20185;-78
2021/06/24 09:01:54;;;;;;;15.27;6.68;;;;;;;54.90;9.19;100279.13;5089211;28;20398;-76
2021/06/24 09:04:25;;;;;;;17.55;6.28;;;;;;;54.04;9.62;100266.81;5091762;28;20036;-77
2021/06/24 09:06:52;;;;;;;11.07;6.18;;;;;;;53.75;9.27;100258.44;5090503;28;20418;-76
2021/06/24 09:09:26;;;;;;;11.40;5.45;;;;;;;54.91;9.18;100272.44;5090322;28;20705;-76
2021/06/24 09:12:10;;;;;;;14.50;5.93;;;;;;;54.84;8.90;100282.28;5090767;28;20063;-77
2021/06/24 09:14:49;;;;;;;14.95;5.85;;;;;;;53.53;9.89;100270.84;5107566;28;20050;-76
2021/06/24 09:17:37;;;;;;;15.32;5.57;;;;;;;53.19;10.32;100257.75;5090054;28;20055;-78
2021/06/24 09:20:24;;;;;;;10.68;5.32;;;;;;;54.04;9.36;100257.63;5088657;28;20055;-76
2021/06/24 09:23:14;;;;;;;14.57;5.32;;;;;;;54.45;9.42;100259.94;5086918;28;20040;-78
2021/06/24 09:25:43;;;;;;;15.23;5.80;;;;;;;55.34;9.25;100260.38;5071609;28;20064;-77
2021/06/24 09:28:10;;;;;;;15.57;5.82;;;;;;;55.65;8.49;100259.03;5070955;28;20072;-77
2021/06/24 09:30:40;;;;;;;10.48;5.80;;;;;;;56.25;8.35;100257.38;5071511;28;20503;-78
2021/06/24 09:33:17;;;;;;;10.60;5.50;;;;;;;56.28;8.18;100257.59;5086013;28;20123;-77
2021/06/24 09:35:58;;;;;;;15.13;5.68;;;;;;;56.63;7.67;100253.50;5069449;28;20040;-76
2021/06/24 09:38:24;;;;;;;12.57;6.35;;;;;;;56.31;7.89;100264.50;5086199;28;20040;-77
2021/06/24 09:40:52;;;;;;;11.75;6.53;;;;;;;55.41;8.68;100259.97;5076909;28;20048;-78
2021/06/24 09:43:27;;;;;;;10.05;5.55;;;;;;;55.25;8.80;100251.03;5091508;28;20048;-80
2021/06/24 09:46:20;;;;;;;13.45;6.18;;;;;;;55.14;8.88;100239.22;5128454;28;20735;-77
2021/06/24 09:49:02;;;;;;;10.82;6.00;;;;;;;54.91;8.97;100229.81;5113376;28;20484;-78
2021/06/24 09:51:30;;;;;;;11.60;5.72;;;;;;;55.45;9.01;100235.13;5095659;28;20068;-76
2021/06/24 09:54:06;;;;;;;10.38;5.85;;;;;;;55.85;8.21;100235.53;5079030;28;20135;-78
2021/06/24 09:56:38;;;;;;;9.27;5.35;;;;;;;56.12;8.31;100237.50;5072071;28;20044;-77
2021/06/24 09:59:06;;;;;;;9.60;5.72;;;;;;;56.55;8.35;100235.53;5087363;28;20051;-77
2021/06/24 10:01:36;;;;;;;11.90;6.00;;;;;;;56.10;8.44;100225.00;5091153;28;20097;-77
2021/06/24 10:04:23;;;;;;;10.43;5.82;;;;;;;55.32;9.02;100231.16;5106870;28;20131;-78
2021/06/24 10:06:52;;;;;;;11.50;6.05;;;;;;;54.72;9.05;100227.03;5070154;28;20419;-78
2021/06/24 10:09:18;;;;;;;10.30;5.03;;;;;;;54.83;9.42;100227.72;5069919;28;20514;-76
2021/06/24 10:11:45;;;;;;;10.82;5.65;;;;;;;55.04;8.91;100233.81;5080880;28;20090;-78
2021/06/24 10:14:15;;;;;;;9.98;5.43;;;;;;;55.15;8.77;100232.53;5075156;28;20118;-77
2021/06/24 10:16:47;;;;;;;11.65;5.63;;;;;;;54.80;9.30;100237.50;5116944;28;20510;-78
2021/06/24 10:19:15;;;;;;;10.40;5.10;;;;;;;53.79;10.02;100226.16;5117494;28;20048;-76
2021/06/24 10:21:42;;;;;;;9.95;5.70;;;;;;;53.62;9.74;100232.19;5096563;28;20047;-76
2021/06/24 10:24:12;;;;;;;8.25;5.30;;;;;;;53.21;10.08;100233.28;5095969;28;20169;-76
2021/06/24 10:26:41;;;;;;;14.68;5.40;;;;;;;51.78;10.63;100231.63;5111421;28;20132;-77
2021/06/24 10:29:15;;;;;;;13.75;5.78;;;;;;;49.91;11.49;100225.78;5094526;28;20083;-75
2021/06/24 10:31:44;;;;;;;14.18;5.20;;;;;;;48.76;12.24;100225.81;5074179;28;20515;-75
2021/06/24 10:34:15;;;;;;;11.40;5.18;;;;;;;47.85;12.79;100236.91;5086087;28;20089;-75
2021/06/24 10:37:15;;;;;;;10.32;5.20;;;;;;;46.69;13.78;100228.69;5092550;28;20040;-78
2021/06/24 10:39:42;;;;;;;9.88;5.40;;;;;;;45.81;14.42;100225.88;5092431;28;20088;-79
2021/06/24 10:42:09;;;;;;;13.02;5.43;;;;;;;45.12;15.31;100238.09;5109279;28;20044;-80
2021/06/24 10:44:58;;;;;;;10.75;5.22;;;;;;;44.39;16.12;100224.13;5108937;27;20048;-76
2021/06/24 10:47:33;;;;;;;11.05;5.40;;;;;;;44.07;15.95;100225.09;5109150;28;20036;-76
2021/06/24 10:50:30;;;;;;;9.57;5.60;;;;;;;43.65;16.83;100224.78;5092822;28;20056;-77
2021/06/24 10:53:11;;;;;;;8.02;5.63;;;;;;;42.94;17.12;100237.59;5066512;28;20406;-76
2021/06/24 10:55:47;;;;;;;17.42;5.95;;;;;;;42.30;18.04;100236.25;5065150;28;20086;-77
2021/06/24 10:58:27;;;;;;;15.55;5.97;;;;;;;41.76;18.65;100226.41;5057613;28;20056;-76
2021/06/24 11:00:59;;;;;;;9.68;5.45;;;;;;;41.46;18.77;100221.28;5030609;28;20051;-74
2021/06/24 11:03:31;;;;;;;9.05;5.93;;;;;;;41.38;18.94;100216.88;5048382;28;20090;-77
2021/06/24 11:06:14;;;;;;;14.43;5.80;;;;;;;41.08;19.42;100209.00;5031540;28;20060;-76
2021/06/24 11:08:42;;;;;;;13.70;6.13;;;;;;;40.62;19.76;100215.94;5041858;28;20033;-77
2021/06/24 11:11:11;;;;;;;11.25;5.93;;;;;;;40.35;19.88;100215.75;5048034;28;20044;-75
2021/06/24 11:13:37;;;;;;;11.38;5.57;;;;;;;40.12;19.95;100216.84;5029942;28;20409;-77
2021/06/24 11:16:21;;;;;;;12.90;6.10;;;;;;;39.78;20.52;100218.47;5043706;28;20052;-76
2021/06/24 11:18:49;;;;;;;14.15;5.90;;;;;;;39.41;20.73;100204.03;5031159;28;20052;-79
2021/06/24 11:21:30;;;;;;;11.88;5.97;;;;;;;39.21;21.08;100215.53;5046833;28;20041;-78
2021/06/24 11:24:06;;;;;;;11.57;6.15;;;;;;;38.81;21.84;100215.03;5027435;28;20526;-74
2021/06/24 11:26:36;;;;;;;19.65;6.25;;;;;;;38.59;21.94;100214.13;5032778;28;20076;-74
2021/06/24 11:29:15;;;;;;;17.92;6.30;;;;;;;38.41;22.20;100210.75;5050358;28;20135;-74
2021/06/24 11:31:58;;;;;;;9.52;5.63;;;;;;;38.22;22.55;100190.34;5039512;28;20107;-75